Time;durP1;ratioP1;P1;durP2;ratioP2;P2;SDS_P1;SDS_P2;PMS_P1;PMS_P2;Temp;Humidity;BMP_temperature;BMP_pressure;BME280_temperature;BME280_humidity;BME280_pressure;Samples;Min_cycle;Max_cycle;Signal;HPM_P1;HPM_P2
2022/02/19 00:06:34;;;;;;;6.85;4.00;;;;;;;;;;19814853;30;20051;-65
2022/02/19 00:16:37;;;;;;;4.87;4.00;;;;;;;;;;19814650;30;20079;-60
2022/02/19 00:26:39;;;;;;;9.18;3.95;;;;;;;;;;19813885;29;20651;-61
2022/02/19 00:36:41;;;;;;;7.50;4.10;;;;;;;;;;19817725;29;20080;-61
2022/02/19 00:46:44;;;;;;;6.38;4.00;;;;;;;;;;19827404;30;20090;-61
2022/02/19 00:56:46;;;;;;;6.20;4.07;;;;;;;;;;19827384;30;20047;-59
2022/02/19 01:06:47;;;;;;;5.53;3.95;;;;;;;;;;19826181;30;20058;-66
2022/02/19 01:16:49;;;;;;;5.93;4.28;;;;;;;;;;19825091;30;20074;-64
2022/02/19 01:26:51;;;;;;;4.45;3.63;;;;;;;;;;19823915;29;20066;-65
2022/02/19 01:36:54;;;;;;;7.80;4.65;;;;;;;;;;19823729;30;20058;-65
2022/02/19 01:46:56;;;;;;;7.50;5.75;;;;;;;;;;19823311;29;20055;-65
2022/02/19 01:56:59;;;;;;;9.52;5.63;;;;;;;;;;19822829;30;20051;-64
2022/02/19 02:07:02;;;;;;;8.25;5.93;;;;;;;;;;19822289;30;20065;-66
2022/02/19 02:17:04;;;;;;;9.40;7.28;;;;;;;;;;19821692;30;20047;-66
2022/02/19 02:27:08;;;;;;;9.38;7.10;;;;;;;;;;19820400;30;20063;-65
2022/02/19 02:37:12;;;;;;;9.15;6.78;;;;;;;;;;19819797;30;20051;-63
2022/02/19 02:47:17;;;;;;;10.15;7.80;;;;;;;;;;19819021;30;20112;-66
2022/02/19 02:57:24;;;;;;;9.40;6.88;;;;;;;;;;19817782;29;20056;-63
2022/02/19 03:07:27;;;;;;;8.63;6.53;;;;;;;;;;19818934;30;20421;-66
2022/02/19 03:17:41;;;;;;;8.83;7.83;;;;;;;;;;19818693;30;20058;-65
2022/02/19 03:27:43;;;;;;;9.55;7.13;;;;;;;;;;19816355;29;20063;-58
2022/02/19 03:37:45;;;;;;;10.68;7.05;;;;;;;;;;19816528;30;20058;-59
2022/02/19 03:47:47;;;;;;;10.27;7.35;;;;;;;;;;19816180;30;20055;-59
2022/02/19 03:57:48;;;;;;;11.20;6.20;;;;;;;;;;19816456;30;20047;-63
2022/02/19 04:07:50;;;;;;;7.63;5.97;;;;;;;;;;19818642;30;20063;-65
2022/02/19 04:17:52;;;;;;;7.10;4.93;;;;;;;;;;19828085;30;20098;-64
2022/02/19 04:27:55;;;;;;;6.40;4.22;;;;;;;;;;19828627;30;20067;-65
2022/02/19 04:37:58;;;;;;;4.15;3.30;;;;;;;;;;19829395;30;20617;-63
2022/02/19 04:48:01;;;;;;;6.35;2.08;;;;;;;;;;19827651;30;20072;-65
2022/02/19 04:58:04;;;;;;;2.80;1.60;;;;;;;;;;19827318;30;20055;-62
2022/02/19 05:08:06;;;;;;;2.25;1.30;;;;;;;;;;19826400;30;20064;-67
2022/02/19 05:18:08;;;;;;;3.75;1.73;;;;;;;;;;19826193;30;20170;-64
2022/02/19 05:28:11;;;;;;;6.07;1.52;;;;;;;;;;19824186;29;20106;-66
2022/02/19 05:38:13;;;;;;;3.75;1.40;;;;;;;;;;19825231;30;20362;-66
2022/02/19 05:48:16;;;;;;;4.18;1.10;;;;;;;;;;19824378;30;20062;-64
2022/02/19 05:58:19;;;;;;;3.40;1.17;;;;;;;;;;19822688;30;20067;-64
2022/02/19 06:08:22;;;;;;;2.13;0.70;;;;;;;;;;19822388;30;20063;-65
2022/02/19 06:18:26;;;;;;;5.30;0.93;;;;;;;;;;19821613;30;20051;-65
2022/02/19 06:28:29;;;;;;;3.22;0.70;;;;;;;;;;19820501;30;20069;-66
2022/02/19 06:38:39;;;;;;;2.58;0.60;;;;;;;;;;19820338;29;20089;-65
2022/02/19 06:48:43;;;;;;;5.55;0.80;;;;;;;;;;19819663;30;20062;-66
2022/02/19 06:58:47;;;;;;;2.30;0.90;;;;;;;;;;19819440;30;20047;-65
2022/02/19 07:08:50;;;;;;;2.78;0.80;;;;;;;;;;19818017;30;20066;-67
2022/02/19 07:18:54;;;;;;;3.03;0.77;;;;;;;;;;19817283;30;20138;-68
2022/02/19 07:28:56;;;;;;;3.33;0.60;;;;;;;;;;19817721;30;20146;-68
2022/02/19 07:38:59;;;;;;;0.75;0.47;;;;;;;;;;19818141;30;20055;-68
2022/02/19 07:58:18;;;;;;;4.90;1.10;;;;;;;;;;19817881;30;20071;-65
2022/02/19 07:59:25;;;;;;;2.70;0.73;;;;;;;;;;19817934;30;20485;-67
2022/02/19 08:09:26;;;;;;;1.77;0.80;;;;;;;;;;19817184;30;20067;-66
2022/02/19 08:19:28;;;;;;;3.58;0.90;;;;;;;;;;19816306;30;20059;-64
2022/02/19 08:29:31;;;;;;;2.47;0.75;;;;;;;;;;19814696;29;20070;-62
2022/02/19 08:39:45;;;;;;;1.88;0.73;;;;;;;;;;19815139;30;20426;-65
2022/02/19 08:50:07;;;;;;;1.88;0.60;;;;;;;;;;19814010;30;20051;-65
2022/02/19 09:00:29;;;;;;;2.03;0.90;;;;;;;;;;19821914;29;20055;-65
2022/02/19 09:10:36;;;;;;;2.13;0.77;;;;;;;;;;19827412;30;20067;-64
2022/02/19 09:20:41;;;;;;;5.47;1.77;;;;;;;;;;19825399;29;20135;-67
2022/02/19 09:30:44;;;;;;;3.03;0.80;;;;;;;;;;19826176;30;20778;-65
2022/02/19 09:40:47;;;;;;;1.80;0.60;;;;;;;;;;19824618;30;20444;-66
2022/02/19 09:50:51;;;;;;;1.02;0.50;;;;;;;;;;19806819;30;20070;-66
2022/02/19 10:00:54;;;;;;;2.83;0.60;;;;;;;;;;19823590;30;20059;-61
2022/02/19 10:10:55;;;;;;;2.60;1.05;;;;;;;;;;19821323;29;20055;-63
2022/02/19 10:21:13;;;;;;;1.83;0.60;;;;;;;;;;19821696;29;20417;-66
2022/02/19 10:31:16;;;;;;;6.75;0.95;;;;;;;;;;19820259;30;20079;-64
2022/02/19 10:41:18;;;;;;;1.13;0.60;;;;;;;;;;19819365;30;20102;-65
2022/02/19 10:51:20;;;;;;;2.60;0.60;;;;;;;;;;19819838;30;20094;-64
2022/02/19 11:01:22;;;;;;;2.45;0.60;;;;;;;;;;19820036;30;20571;-61
2022/02/19 11:11:26;;;;;;;2.08;0.50;;;;;;;;;;19817560;30;20184;-65
2022/02/19 11:21:29;;;;;;;1.25;0.60;;;;;;;;;;19815927;29;20055;-66
2022/02/19 11:31:32;;;;;;;3.70;1.00;;;;;;;;;;19816575;30;20055;-61
2022/02/19 11:41:46;;;;;;;2.05;0.77;;;;;;;;;;19815597;30;20212;-66
2022/02/19 11:52:08;;;;;;;0.68;0.45;;;;;;;;;;19815216;30;20059;-62
2022/02/19 12:02:27;;;;;;;1.48;0.68;;;;;;;;;;19804568;30;20051;-62
2022/02/19 12:12:29;;;;;;;2.38;0.90;;;;;;;;;;19814570;30;20101;-64
2022/02/19 12:22:38;;;;;;;1.77;0.65;;;;;;;;;;19814476;29;20116;-63
2022/02/19 12:32:44;;;;;;;1.30;0.60;;;;;;;;;;19817516;29;20059;-66
2022/02/19 12:42:47;;;;;;;1.83;0.70;;;;;;;;;;19825549;30;20142;-66
2022/02/19 12:52:50;;;;;;;1.63;0.70;;;;;;;;;;19834876;29;20126;-65
2022/02/19 13:03:02;;;;;;;1.23;0.70;;;;;;;;;;19824794;29;20059;-63
2022/02/19 13:13:14;;;;;;;3.47;0.50;;;;;;;;;;19825977;30;20059;-61
2022/02/19 13:23:27;;;;;;;2.88;0.50;;;;;;;;;;19821897;29;20421;-63
2022/02/19 13:33:29;;;;;;;3.45;0.75;;;;;;;;;;19821711;30;20047;-60
2022/02/19 13:43:31;;;;;;;2.35;1.10;;;;;;;;;;19821468;29;20417;-62
2022/02/19 13:53:38;;;;;;;2.70;1.55;;;;;;;;;;19822048;30;20052;-60
2022/02/19 14:03:48;;;;;;;2.08;0.60;;;;;;;;;;19822695;30;20103;-60
2022/02/19 14:13:52;;;;;;;1.83;0.75;;;;;;;;;;19820371;30;20062;-61
2022/02/19 14:24:10;;;;;;;2.92;1.00;;;;;;;;;;19820228;29;20524;-62
2022/02/19 14:34:18;;;;;;;3.47;1.00;;;;;;;;;;19819952;30;20449;-62
2022/02/19 14:44:22;;;;;;;1.23;0.80;;;;;;;;;;19818880;30;20055;-63
2022/02/19 14:54:26;;;;;;;1.33;0.83;;;;;;;;;;19817844;29;20100;-63
2022/02/19 15:04:28;;;;;;;3.17;0.70;;;;;;;;;;19818103;30;20469;-65
2022/02/19 15:14:31;;;;;;;2.20;1.17;;;;;;;;;;19816831;30;20051;-64
2022/02/19 15:24:34;;;;;;;2.38;0.50;;;;;;;;;;19816352;29;20075;-63
2022/02/19 15:34:36;;;;;;;2.42;1.38;;;;;;;;;;19815943;30;20112;-60
2022/02/19 15:44:38;;;;;;;1.48;0.60;;;;;;;;;;19815378;30;20055;-62
2022/02/19 15:54:40;;;;;;;2.15;0.60;;;;;;;;;;19815128;30;20067;-62
2022/02/19 16:04:42;;;;;;;1.90;0.82;;;;;;;;;;19815260;29;20062;-63
2022/02/19 16:14:44;;;;;;;1.23;0.57;;;;;;;;;;19830504;30;20131;-62
2022/02/19 16:24:46;;;;;;;1.48;0.73;;;;;;;;;;19827667;29;20059;-62
2022/02/19 16:34:48;;;;;;;1.25;0.70;;;;;;;;;;19827907;30;20079;-61
2022/02/19 16:44:50;;;;;;;4.60;1.20;;;;;;;;;;19826810;30;20061;-67
2022/02/19 16:54:52;;;;;;;1.75;0.50;;;;;;;;;;19826751;30;20110;-63
2022/02/19 17:04:54;;;;;;;2.13;1.08;;;;;;;;;;19809910;30;20394;-60
2022/02/19 17:14:56;;;;;;;3.33;1.05;;;;;;;;;;19825062;30;20503;-59
2022/02/19 17:24:58;;;;;;;2.75;0.90;;;;;;;;;;19823377;29;20429;-62
2022/02/19 17:35:00;;;;;;;0.80;0.43;;;;;;;;;;19823427;30;20107;-60
2022/02/19 17:45:02;;;;;;;1.35;0.80;;;;;;;;;;19823712;30;20055;-64
2022/02/19 17:55:05;;;;;;;2.40;1.10;;;;;;;;;;19822341;30;20058;-62
2022/02/19 18:05:07;;;;;;;6.70;2.45;;;;;;;;;;19822830;30;20066;-61
2022/02/19 18:15:11;;;;;;;3.15;1.55;;;;;;;;;;19821524;30;20056;-60
2022/02/19 18:25:13;;;;;;;6.20;2.05;;;;;;;;;;19820627;30;20206;-59
2022/02/19 18:35:15;;;;;;;8.40;2.65;;;;;;;;;;19818667;29;20059;-59
2022/02/19 18:45:19;;;;;;;9.57;2.55;;;;;;;;;;19819398;30;20055;-62
2022/02/19 18:55:23;;;;;;;7.20;3.38;;;;;;;;;;19818507;30;20130;-60
2022/02/19 19:05:25;;;;;;;6.30;2.20;;;;;;;;;;19818025;30;20055;-59
2022/02/19 19:15:27;;;;;;;4.97;2.67;;;;;;;;;;19817219;30;20055;-60
2022/02/19 19:25:29;;;;;;;8.43;5.00;;;;;;;;;;19816559;29;20055;-63
2022/02/19 19:35:31;;;;;;;8.63;4.22;;;;;;;;;;19815875;30;20090;-65
2022/02/19 19:45:34;;;;;;;5.32;3.42;;;;;;;;;;19815111;29;20514;-60
2022/02/19 19:55:37;;;;;;;7.15;4.00;;;;;;;;;;19816239;30;20087;-59
2022/02/19 20:05:39;;;;;;;10.15;4.35;;;;;;;;;;19814478;30;20151;-61
2022/02/19 20:15:42;;;;;;;12.43;5.80;;;;;;;;;;19814944;30;20130;-60
2022/02/19 20:25:44;;;;;;;7.53;4.07;;;;;;;;;;19814075;29;20505;-64
2022/02/19 20:35:46;;;;;;;6.93;1.65;;;;;;;;;;19813732;30;20092;-61
2022/02/19 20:45:49;;;;;;;5.38;2.20;;;;;;;;;;19813579;30;20059;-59
2022/02/19 20:55:51;;;;;;;4.55;2.35;;;;;;;;;;19820199;29;20063;-60
2022/02/19 21:05:53;;;;;;;2.75;1.30;;;;;;;;;;19827161;30;20442;-59
2022/02/19 21:15:55;;;;;;;4.38;1.63;;;;;;;;;;19825316;30;20090;-59
2022/02/19 21:25:58;;;;;;;6.65;2.72;;;;;;;;;;19824699;29;20062;-60
2022/02/19 21:36:00;;;;;;;5.22;1.70;;;;;;;;;;19825554;30;20055;-60
2022/02/19 21:46:02;;;;;;;4.50;1.63;;;;;;;;;;19824506;30;20055;-59
2022/02/19 21:56:04;;;;;;;2.67;1.27;;;;;;;;;;19823476;30;20060;-60
2022/02/19 22:06:06;;;;;;;5.60;1.65;;;;;;;;;;19822025;29;20488;-60
2022/02/19 22:16:09;;;;;;;3.97;1.42;;;;;;;;;;19821747;30;20055;-63
2022/02/19 22:26:11;;;;;;;74.85;44.75;;;;;;;;;;19821081;30;20067;-63
2022/02/19 22:36:12;;;;;;;2.97;1.25;;;;;;;;;;19820829;30;20065;-61
2022/02/19 22:46:15;;;;;;;4.65;1.17;;;;;;;;;;19819728;30;20139;-60
2022/02/19 22:56:17;;;;;;;4.07;1.17;;;;;;;;;;19818807;30;20138;-63
2022/02/19 23:06:19;;;;;;;3.65;1.30;;;;;;;;;;19818544;30;20090;-58
2022/02/19 23:16:21;;;;;;;4.35;1.20;;;;;;;;;;19817634;29;20558;-61
2022/02/19 23:26:23;;;;;;;4.00;1.50;;;;;;;;;;19817485;30;20067;-60
2022/02/19 23:36:28;;;;;;;4.28;1.48;;;;;;;;;;19816819;30;20105;-60
2022/02/19 23:46:30;;;;;;;5.00;1.95;;;;;;;;;;19815961;30;20063;-59
2022/02/19 23:56:32;;;;;;;5.95;1.60;;;;;;;;;;19816260;30;20087;-60
